createdAt,value
2022-11-09T00:00:06.612Z,2.97
2022-11-09T00:02:33.238Z,2.88
2022-11-09T00:04:59.852Z,3.10
2022-11-09T00:07:26.477Z,3.35
2022-11-09T00:09:53.141Z,2.80
2022-11-09T00:12:19.755Z,3.50
2022-11-09T00:14:46.386Z,3.20
2022-11-09T00:17:12.970Z,3.00
2022-11-09T00:19:39.600Z,3.25
2022-11-09T00:22:06.198Z,3.17
2022-11-09T00:24:32.865Z,3.15
2022-11-09T00:26:59.500Z,3.67
2022-11-09T00:29:26.106Z,3.45
2022-11-09T00:31:52.742Z,3.20
2022-11-09T00:34:19.326Z,3.17
2022-11-09T00:36:45.908Z,3.47
2022-11-09T00:39:12.578Z,3.13
2022-11-09T00:41:39.187Z,2.70
2022-11-09T00:44:06.047Z,2.67
2022-11-09T00:46:32.854Z,3.15
2022-11-09T00:48:59.670Z,2.70
2022-11-09T00:51:26.368Z,3.03
2022-11-09T00:53:54.891Z,3.08
2022-11-09T00:56:22.460Z,2.95
2022-11-09T00:58:54.339Z,2.42
2022-11-09T01:01:21.316Z,2.85
2022-11-09T01:03:48.190Z,2.67
2022-11-09T01:06:20.439Z,2.72
2022-11-09T01:08:48.228Z,3.00
2022-11-09T01:11:15.988Z,2.85
2022-11-09T01:13:42.680Z,2.97
2022-11-09T01:16:12.443Z,3.00
2022-11-09T01:18:40.147Z,2.97
2022-11-09T01:21:09.526Z,2.80
2022-11-09T01:23:37.209Z,2.60
2022-11-09T01:26:07.031Z,2.85
2022-11-09T01:28:34.225Z,2.95
2022-11-09T01:31:03.135Z,3.25
2022-11-09T01:33:29.787Z,2.92
2022-11-09T01:36:02.633Z,3.03
2022-11-09T01:38:29.345Z,3.30
2022-11-09T01:40:56.063Z,3.05
2022-11-09T01:43:24.623Z,3.03
2022-11-09T01:46:00.471Z,2.97
2022-11-09T01:48:40.475Z,3.05
2022-11-09T01:51:16.677Z,3.17
2022-11-09T01:53:47.949Z,2.70
2022-11-09T01:56:15.511Z,2.63
2022-11-09T01:58:49.828Z,2.53
2022-11-09T02:01:18.032Z,2.80
2022-11-09T02:03:56.028Z,2.92
2022-11-09T02:06:25.737Z,2.85
2022-11-09T02:08:57.658Z,2.70
2022-11-09T02:11:27.442Z,2.50
2022-11-09T02:13:58.028Z,2.70
2022-11-09T02:16:25.098Z,2.50
2022-11-09T02:18:55.408Z,2.90
2022-11-09T02:21:25.596Z,2.75
2022-11-09T02:23:52.767Z,2.53
2022-11-09T02:26:26.659Z,2.65
2022-11-09T02:28:55.518Z,2.92
2022-11-09T02:31:28.102Z,3.00
2022-11-09T02:33:59.860Z,2.70
2022-11-09T02:36:26.559Z,2.63
2022-11-09T02:38:55.667Z,2.50
2022-11-09T02:41:23.298Z,2.53
2022-11-09T02:43:54.910Z,2.60
2022-11-09T02:46:36.235Z,2.40
2022-11-09T02:49:04.327Z,2.92
2022-11-09T02:51:31.106Z,2.70
2022-11-09T02:53:57.718Z,2.35
2022-11-09T02:56:24.398Z,2.80
2022-11-09T02:58:51.066Z,2.90
2022-11-09T03:01:17.840Z,2.60
2022-11-09T03:03:44.523Z,2.60
2022-11-09T03:06:11.128Z,2.88
2022-11-09T03:08:37.826Z,2.97
2022-11-09T03:11:06.203Z,3.58
2022-11-09T03:13:33.902Z,3.20
2022-11-09T03:16:05.649Z,3.42
2022-11-09T03:18:32.307Z,3.33
2022-11-09T03:21:04.467Z,3.40
2022-11-09T03:23:31.699Z,3.58
2022-11-09T03:25:58.359Z,3.90
2022-11-09T03:28:25.090Z,3.80
2022-11-09T03:30:51.997Z,3.40
2022-11-09T03:33:19.122Z,3.78
2022-11-09T03:35:45.927Z,4.00
2022-11-09T03:38:13.547Z,4.05
2022-11-09T03:43:21.740Z,3.85
2022-11-09T03:45:48.835Z,3.83
2022-11-09T03:48:15.568Z,3.72
2022-11-09T03:50:42.281Z,4.30
2022-11-09T03:53:10.282Z,3.65
2022-11-09T03:55:38.363Z,3.28
2022-11-09T03:58:06.396Z,3.20
2022-11-09T04:00:33.565Z,3.28
2022-11-09T04:03:00.239Z,2.72
2022-11-09T04:05:26.921Z,2.90
2022-11-09T04:07:55.658Z,3.20
2022-11-09T04:10:23.639Z,3.13
2022-11-09T04:12:50.647Z,3.30
2022-11-09T04:15:17.704Z,3.50
2022-11-09T04:17:47.449Z,3.42
2022-11-09T04:20:14.098Z,2.78
2022-11-09T04:22:40.860Z,3.13
2022-11-09T04:25:07.860Z,3.28
2022-11-09T04:27:34.564Z,3.65
2022-11-09T04:30:01.186Z,2.95
2022-11-09T04:32:27.812Z,3.00
2022-11-09T04:34:54.737Z,2.80
2022-11-09T04:37:21.380Z,3.58
2022-11-09T04:39:48.008Z,3.22
2022-11-09T04:42:14.683Z,3.40
2022-11-09T04:44:41.290Z,3.78
2022-11-09T04:47:07.897Z,3.20
2022-11-09T04:49:34.524Z,3.85
2022-11-09T04:52:01.153Z,3.15
2022-11-09T04:54:27.839Z,3.22
2022-11-09T04:56:54.622Z,3.22
2022-11-09T04:59:21.306Z,3.13
2022-11-09T05:01:47.960Z,3.25
2022-11-09T05:04:14.783Z,3.22
2022-11-09T05:06:41.493Z,3.65
2022-11-09T05:09:08.568Z,3.42
2022-11-09T05:11:36.730Z,3.50
2022-11-09T05:14:03.520Z,3.10
2022-11-09T05:16:30.257Z,2.88
2022-11-09T05:18:56.982Z,3.45
2022-11-09T05:21:23.711Z,3.63
2022-11-09T05:23:59.376Z,4.03
2022-11-09T05:26:27.772Z,3.75
2022-11-09T05:28:55.031Z,4.20
2022-11-09T05:31:21.696Z,4.40
2022-11-09T05:33:50.269Z,4.53
2022-11-09T05:36:17.675Z,4.57
2022-11-09T05:38:45.012Z,4.20
2022-11-09T05:41:12.091Z,4.60
2022-11-09T05:43:38.850Z,4.38
2022-11-09T05:46:06.865Z,4.22
2022-11-09T05:48:34.070Z,4.07
2022-11-09T05:51:02.813Z,4.00
2022-11-09T05:53:30.408Z,4.53
2022-11-09T05:56:01.112Z,3.97
2022-11-09T05:58:27.773Z,3.50
2022-11-09T06:00:54.400Z,4.75
2022-11-09T06:03:21.281Z,4.22
2022-11-09T06:05:48.184Z,4.05
2022-11-09T06:08:15.407Z,3.97
2022-11-09T06:10:42.932Z,4.05
2022-11-09T06:13:10.452Z,4.60
2022-11-09T06:15:37.487Z,4.50
2022-11-09T06:18:04.319Z,4.60
2022-11-09T06:20:31.438Z,4.25
2022-11-09T06:23:03.477Z,4.22
2022-11-09T06:25:32.224Z,4.00
2022-11-09T06:27:59.106Z,3.95
2022-11-09T06:30:25.877Z,3.85
2022-11-09T06:32:58.935Z,3.65
2022-11-09T06:35:25.908Z,4.20
2022-11-09T06:37:57.500Z,4.00
2022-11-09T06:40:24.142Z,4.15
2022-11-09T06:42:51.182Z,3.95
2022-11-09T06:45:17.935Z,4.32
2022-11-09T06:47:44.557Z,3.85
2022-11-09T06:50:12.542Z,3.72
2022-11-09T06:52:39.184Z,4.07
2022-11-09T06:55:06.709Z,3.30
2022-11-09T06:57:33.312Z,3.20
2022-11-09T07:00:00.436Z,3.72
2022-11-09T07:02:27.104Z,3.35
2022-11-09T07:04:53.727Z,3.75
2022-11-09T07:07:24.924Z,4.00
2022-11-09T07:09:54.160Z,4.40
2022-11-09T07:12:20.800Z,4.55
2022-11-09T07:14:47.421Z,4.30
2022-11-09T07:17:14.087Z,3.42
2022-11-09T07:19:40.759Z,4.53
2022-11-09T07:22:07.457Z,4.20
2022-11-09T07:24:34.110Z,3.67
2022-11-09T07:27:00.694Z,4.72
2022-11-09T07:29:27.377Z,4.15
2022-11-09T07:31:53.991Z,4.38
2022-11-09T07:34:20.670Z,4.50
2022-11-09T07:36:47.389Z,4.90
2022-11-09T07:39:14.013Z,4.38
2022-11-09T07:41:40.739Z,5.22
2022-11-09T07:44:07.439Z,5.18
2022-11-09T07:46:35.596Z,4.75
2022-11-09T07:49:02.230Z,5.38
2022-11-09T07:51:28.821Z,4.47
2022-11-09T07:53:55.501Z,4.80
2022-11-09T07:56:22.163Z,4.72
2022-11-09T07:58:50.474Z,4.80
2022-11-09T08:01:17.211Z,4.93
2022-11-09T08:03:43.810Z,3.92
2022-11-09T08:06:15.638Z,4.32
2022-11-09T08:08:44.783Z,4.15
2022-11-09T08:11:11.639Z,4.10
2022-11-09T08:13:38.323Z,3.97
2022-11-09T08:16:05.222Z,4.50
2022-11-09T08:18:31.911Z,4.20
2022-11-09T08:21:02.295Z,4.80
2022-11-09T08:23:29.454Z,3.90
2022-11-09T08:25:56.341Z,4.18
2022-11-09T08:28:23.541Z,3.60
2022-11-09T08:30:58.885Z,3.85
2022-11-09T08:33:27.700Z,3.90
2022-11-09T08:35:54.581Z,3.80
2022-11-09T08:38:21.617Z,3.95
2022-11-09T08:40:48.791Z,3.50
2022-11-09T08:43:15.478Z,3.90
2022-11-09T08:45:42.241Z,3.60
2022-11-09T08:48:10.542Z,3.63
2022-11-09T08:50:37.604Z,3.70
2022-11-09T08:53:04.694Z,4.70
2022-11-09T08:55:31.624Z,3.55
2022-11-09T08:58:00.752Z,3.80
2022-11-09T09:00:27.662Z,4.38
2022-11-09T09:02:54.621Z,4.18
2022-11-09T09:05:22.063Z,4.15
2022-11-09T09:07:48.834Z,4.63
2022-11-09T09:10:15.575Z,4.85
2022-11-09T09:12:42.303Z,4.68
2022-11-09T09:15:09.390Z,3.85
2022-11-09T09:17:36.032Z,3.50
2022-11-09T09:20:04.201Z,3.30
2022-11-09T09:22:30.937Z,3.55
2022-11-09T09:24:57.652Z,3.30
2022-11-09T09:27:24.766Z,4.18
2022-11-09T09:29:51.391Z,3.15
2022-11-09T09:32:18.082Z,2.88
2022-11-09T09:34:44.705Z,4.32
2022-11-09T09:37:11.447Z,4.22
2022-11-09T09:39:38.267Z,4.82
2022-11-09T09:42:07.575Z,4.63
2022-11-09T09:44:49.576Z,4.80
2022-11-09T09:47:30.472Z,4.82
2022-11-09T09:50:10.330Z,4.50
2022-11-09T09:53:22.615Z,3.42
2022-11-09T09:55:50.899Z,3.55
2022-11-09T09:58:21.760Z,4.07
2022-11-09T10:00:52.357Z,4.35
2022-11-09T10:03:20.705Z,4.43
2022-11-09T10:06:16.385Z,4.57
2022-11-09T10:11:25.027Z,4.15
2022-11-09T10:14:04.363Z,4.53
2022-11-09T10:16:43.169Z,4.00
2022-11-09T10:19:28.730Z,4.32
2022-11-09T10:22:06.277Z,4.00
2022-11-09T10:25:20.672Z,4.35
2022-11-09T10:28:17.970Z,3.42
2022-11-09T10:30:45.103Z,4.43
2022-11-09T10:33:11.743Z,4.07
2022-11-09T10:35:47.931Z,3.70
2022-11-09T10:38:38.985Z,4.00
2022-11-09T10:41:27.896Z,4.13
2022-11-09T10:43:54.544Z,3.90
2022-11-09T10:46:21.763Z,4.50
2022-11-09T10:48:48.395Z,3.40
2022-11-09T10:51:42.594Z,3.15
2022-11-09T10:54:23.480Z,3.83
2022-11-09T10:57:06.179Z,3.53
2022-11-09T10:59:39.766Z,3.30
2022-11-09T11:02:26.624Z,3.67
2022-11-09T11:05:19.071Z,3.17
2022-11-09T11:07:46.608Z,3.50
2022-11-09T11:10:16.026Z,3.92
2022-11-09T11:12:57.151Z,3.78
2022-11-09T11:15:38.547Z,4.03
2022-11-09T11:18:23.629Z,3.53
2022-11-09T11:21:07.655Z,3.60
2022-11-09T11:23:37.005Z,3.95
2022-11-09T11:26:22.867Z,4.00
2022-11-09T11:29:00.579Z,3.03
2022-11-09T11:31:27.561Z,3.53
2022-11-09T11:33:54.340Z,3.42
2022-11-09T11:36:34.559Z,3.30
2022-11-09T11:39:29.704Z,4.03
2022-11-09T11:42:23.899Z,4.22
2022-11-09T11:45:38.889Z,3.25
2022-11-09T11:48:04.126Z,3.30
2022-11-09T11:50:54.347Z,3.58
2022-11-09T11:53:43.541Z,3.83
2022-11-09T11:56:24.683Z,3.67
2022-11-09T11:59:19.170Z,3.97
2022-11-09T12:01:54.647Z,3.80
2022-11-09T12:05:00.665Z,3.72
2022-11-09T12:10:28.679Z,3.60
2022-11-09T12:13:07.240Z,3.35
2022-11-09T12:15:39.814Z,3.70
2022-11-09T12:18:43.232Z,3.53
2022-11-09T12:21:14.745Z,4.03
2022-11-09T12:23:47.492Z,3.55
2022-11-09T12:26:35.552Z,3.65
2022-11-09T12:29:30.364Z,3.33
2022-11-09T12:32:17.260Z,3.30
2022-11-09T12:35:23.964Z,3.42
2022-11-09T12:37:57.474Z,3.20
2022-11-09T12:40:31.454Z,3.42
2022-11-09T12:43:21.694Z,4.17
2022-11-09T12:45:51.510Z,3.63
2022-11-09T12:48:32.898Z,3.50
2022-11-09T12:51:01.645Z,3.42
2022-11-09T12:53:32.550Z,3.45
2022-11-09T12:56:26.435Z,3.55
2022-11-09T12:58:53.443Z,3.53
2022-11-09T13:01:25.996Z,3.88
2022-11-09T13:03:55.749Z,3.20
2022-11-09T13:06:25.796Z,3.13
2022-11-09T13:08:57.633Z,3.75
2022-11-09T13:11:37.025Z,3.40
2022-11-09T13:14:22.184Z,3.20
2022-11-09T13:19:34.460Z,3.28
2022-11-09T13:22:02.927Z,3.65
2022-11-09T13:24:34.322Z,3.40
2022-11-09T13:27:02.534Z,3.17
2022-11-09T13:29:47.782Z,3.42
2022-11-09T13:32:16.671Z,3.00
2022-11-09T13:34:47.911Z,3.28
2022-11-09T13:37:42.701Z,3.15
2022-11-09T13:40:31.168Z,3.53
2022-11-09T13:43:03.914Z,3.00
2022-11-09T13:45:42.887Z,3.33
2022-11-09T13:48:41.180Z,3.70
2022-11-09T13:51:12.863Z,3.08
2022-11-09T13:53:39.460Z,3.22
2022-11-09T13:56:26.149Z,3.55
2022-11-09T13:59:17.063Z,3.72
2022-11-09T14:01:48.437Z,3.53
2022-11-09T14:04:25.854Z,3.65
2022-11-09T14:07:20.060Z,3.08
2022-11-09T14:10:05.029Z,3.53
2022-11-09T14:12:42.512Z,3.40
2022-11-09T14:15:33.513Z,3.80
2022-11-09T14:18:27.903Z,3.10
2022-11-09T14:21:13.031Z,3.10
2022-11-09T14:23:39.758Z,3.28
2022-11-09T14:26:16.466Z,3.33
2022-11-09T14:28:43.185Z,3.22
2022-11-09T14:31:45.603Z,3.53
2022-11-09T14:34:15.277Z,3.30
2022-11-09T14:36:43.118Z,3.47
2022-11-09T14:39:34.333Z,4.00
2022-11-09T14:42:01.258Z,3.63
2022-11-09T14:44:32.336Z,3.75
2022-11-09T14:46:59.058Z,3.58
2022-11-09T14:49:27.559Z,3.60
2022-11-09T14:51:54.475Z,4.35
2022-11-09T14:54:25.659Z,3.50
2022-11-09T14:56:54.382Z,3.97
2022-11-09T14:59:36.066Z,4.00
2022-11-09T15:02:13.535Z,4.60
2022-11-09T15:04:58.000Z,4.63
2022-11-09T15:07:31.026Z,4.43
2022-11-09T15:10:00.468Z,4.43
2022-11-09T15:12:29.507Z,4.15
2022-11-09T15:15:02.399Z,4.50
2022-11-09T15:17:37.560Z,5.15
2022-11-09T15:20:26.277Z,5.28
2022-11-09T15:23:21.128Z,5.78
2022-11-09T15:25:47.782Z,5.22
2022-11-09T15:28:14.452Z,6.03
2022-11-09T15:30:48.541Z,5.72
2022-11-09T15:33:17.838Z,6.72
2022-11-09T15:35:52.912Z,6.38
2022-11-09T15:38:37.857Z,5.60
2022-11-09T15:41:11.742Z,6.15
2022-11-09T15:43:38.482Z,6.10
2022-11-09T15:46:05.672Z,5.90
2022-11-09T15:48:32.996Z,6.22
2022-11-09T15:50:59.662Z,6.03
2022-11-09T15:53:26.810Z,6.40
2022-11-09T15:55:53.483Z,5.75
2022-11-09T15:58:20.416Z,6.18
2022-11-09T16:00:47.647Z,6.03
2022-11-09T16:03:17.335Z,6.18
2022-11-09T16:05:47.347Z,6.32
2022-11-09T16:08:14.297Z,5.82
2022-11-09T16:10:41.912Z,5.70
2022-11-09T16:13:09.866Z,6.32
2022-11-09T16:15:37.956Z,5.82
2022-11-09T16:18:05.192Z,5.47
2022-11-09T16:20:31.945Z,6.15
2022-11-09T16:22:59.079Z,5.80
2022-11-09T16:25:25.733Z,5.93
2022-11-09T16:27:52.365Z,5.20
2022-11-09T16:30:19.618Z,5.88
2022-11-09T16:32:46.524Z,5.50
2022-11-09T16:35:28.915Z,6.05
2022-11-09T16:37:57.470Z,5.60
2022-11-09T16:40:24.380Z,6.97
2022-11-09T16:42:52.194Z,7.60
2022-11-09T16:45:19.922Z,15.48
2022-11-09T16:47:50.974Z,11.35
2022-11-09T16:50:17.940Z,9.68
2022-11-09T16:52:45.243Z,7.35
2022-11-09T16:55:12.005Z,7.38
2022-11-09T16:57:38.636Z,7.60
2022-11-09T17:00:07.288Z,7.55
2022-11-09T17:02:34.612Z,7.35
2022-11-09T17:05:01.225Z,8.10
2022-11-09T17:07:27.995Z,8.02
2022-11-09T17:09:54.658Z,8.05
2022-11-09T17:12:21.640Z,7.53
2022-11-09T17:14:48.317Z,6.35
2022-11-09T17:17:21.191Z,5.53
2022-11-09T17:19:49.089Z,4.13
2022-11-09T17:22:16.212Z,5.55
2022-11-09T17:24:42.867Z,5.20
2022-11-09T17:27:10.446Z,4.90
2022-11-09T17:29:37.940Z,5.25
2022-11-09T17:32:09.717Z,5.35
2022-11-09T17:34:36.449Z,5.28
2022-11-09T17:37:05.454Z,5.95
2022-11-09T17:39:33.049Z,5.60
2022-11-09T17:41:59.882Z,6.07
2022-11-09T17:44:26.601Z,6.30
2022-11-09T17:46:53.355Z,5.30
2022-11-09T17:49:19.937Z,6.32
2022-11-09T17:51:46.565Z,5.88
2022-11-09T17:54:15.137Z,6.57
2022-11-09T17:56:42.243Z,7.03
2022-11-09T17:59:08.922Z,6.82
2022-11-09T18:01:41.078Z,5.57
2022-11-09T18:04:10.582Z,6.10
2022-11-09T18:06:38.459Z,5.47
2022-11-09T18:11:52.851Z,5.07
2022-11-09T18:14:19.863Z,5.75
2022-11-09T18:16:46.723Z,5.45
2022-11-09T18:19:13.505Z,6.70
2022-11-09T18:21:40.219Z,9.00
2022-11-09T18:24:07.430Z,6.32
2022-11-09T18:26:34.419Z,5.78
2022-11-09T18:29:01.140Z,5.68
2022-11-09T18:31:28.077Z,6.88
2022-11-09T18:33:55.029Z,6.50
2022-11-09T18:36:23.507Z,6.72
2022-11-09T18:38:53.101Z,5.90
2022-11-09T18:41:22.158Z,8.40
2022-11-09T18:43:49.963Z,8.50
2022-11-09T18:46:20.049Z,7.32
2022-11-09T18:48:53.958Z,6.90
2022-11-09T18:51:20.982Z,6.93
2022-11-09T18:53:48.605Z,7.13
2022-11-09T18:56:21.734Z,7.43
2022-11-09T18:58:50.198Z,7.78
2022-11-09T19:01:17.716Z,7.82
2022-11-09T19:03:44.327Z,7.45
2022-11-09T19:06:18.305Z,7.35
2022-11-09T19:09:04.643Z,6.47
2022-11-09T19:11:31.987Z,6.20
2022-11-09T19:13:58.698Z,7.10
2022-11-09T19:16:26.305Z,7.70
2022-11-09T19:18:53.572Z,8.20
2022-11-09T19:21:40.186Z,7.93
2022-11-09T19:24:08.594Z,7.30
2022-11-09T19:26:35.425Z,6.57
2022-11-09T19:29:02.120Z,6.93
2022-11-09T19:31:28.832Z,7.03
2022-11-09T19:33:55.495Z,6.75
2022-11-09T19:36:32.262Z,6.15
2022-11-09T19:38:59.293Z,5.90
2022-11-09T19:41:26.032Z,5.90
2022-11-09T19:43:55.942Z,6.32
2022-11-09T19:46:22.947Z,6.20
2022-11-09T19:48:49.611Z,6.30
2022-11-09T19:51:17.899Z,6.88
2022-11-09T19:53:52.542Z,6.72
2022-11-09T19:56:20.387Z,6.47
2022-11-09T19:58:51.390Z,5.68
2022-11-09T20:01:18.880Z,6.15
2022-11-09T20:03:49.463Z,6.32
2022-11-09T20:06:17.413Z,5.95
2022-11-09T20:08:44.288Z,5.60
2022-11-09T20:11:33.467Z,5.85
2022-11-09T20:14:00.202Z,5.60
2022-11-09T20:16:26.912Z,5.25
2022-11-09T20:18:54.215Z,5.80
2022-11-09T20:21:21.008Z,5.50
2022-11-09T20:23:47.666Z,5.60
2022-11-09T20:26:14.265Z,5.75
2022-11-09T20:28:40.893Z,6.40
2022-11-09T20:31:11.830Z,7.00
2022-11-09T20:33:38.623Z,6.00
2022-11-09T20:36:05.757Z,6.00
2022-11-09T20:38:32.511Z,6.15
2022-11-09T20:41:04.926Z,5.20
2022-11-09T20:43:31.634Z,5.53
2022-11-09T20:46:07.032Z,5.50
2022-11-09T20:51:21.075Z,4.75
2022-11-09T20:53:50.736Z,5.47
2022-11-09T20:56:18.418Z,5.18
2022-11-09T20:58:45.381Z,5.45
2022-11-09T21:01:18.247Z,5.15
2022-11-09T21:03:46.030Z,6.20
2022-11-09T21:06:14.580Z,5.80
2022-11-09T21:08:45.178Z,5.15
2022-11-09T21:11:13.174Z,6.13
2022-11-09T21:13:44.216Z,5.32
2022-11-09T21:16:13.037Z,5.25
2022-11-09T21:18:40.256Z,5.75
2022-11-09T21:21:12.018Z,5.40
2022-11-09T21:23:58.016Z,4.35
2022-11-09T21:26:44.021Z,4.97
2022-11-09T21:29:40.757Z,5.93
2022-11-09T21:32:08.217Z,5.93
2022-11-09T21:34:37.130Z,5.65
2022-11-09T21:37:04.901Z,5.30
2022-11-09T21:39:31.903Z,5.60
2022-11-09T21:41:58.815Z,4.70
2022-11-09T21:44:27.673Z,5.03
2022-11-09T21:46:54.516Z,5.25
2022-11-09T21:49:21.428Z,5.40
2022-11-09T21:51:48.067Z,5.28
2022-11-09T21:54:14.760Z,4.75
2022-11-09T21:56:41.385Z,4.90
2022-11-09T21:59:08.422Z,5.22
2022-11-09T22:01:35.703Z,4.55
2022-11-09T22:04:02.553Z,4.70
2022-11-09T22:06:29.306Z,4.75
2022-11-09T22:08:56.098Z,4.82
2022-11-09T22:11:45.244Z,5.53
2022-11-09T22:14:36.220Z,4.80
2022-11-09T22:17:04.140Z,5.35
2022-11-09T22:19:48.921Z,5.20
2022-11-09T22:22:16.152Z,5.70
2022-11-09T22:24:42.850Z,5.35
2022-11-09T22:27:09.552Z,5.28
2022-11-09T22:29:36.457Z,4.97
2022-11-09T22:32:03.358Z,4.72
2022-11-09T22:34:30.077Z,4.80
2022-11-09T22:36:56.982Z,4.47
2022-11-09T22:39:23.673Z,5.28
2022-11-09T22:41:50.300Z,4.57
2022-11-09T22:44:18.125Z,5.03
2022-11-09T22:46:44.799Z,4.90
2022-11-09T22:49:11.527Z,4.78
2022-11-09T22:51:38.161Z,4.60
2022-11-09T22:54:05.149Z,5.53
2022-11-09T22:56:31.857Z,4.80
2022-11-09T22:58:58.461Z,4.85
2022-11-09T23:01:25.292Z,4.75
2022-11-09T23:03:52.871Z,4.40
2022-11-09T23:06:21.672Z,4.68
2022-11-09T23:08:48.546Z,4.80
2022-11-09T23:11:18.163Z,4.70
2022-11-09T23:13:48.167Z,4.70
2022-11-09T23:16:14.787Z,4.80
2022-11-09T23:18:56.466Z,4.43
2022-11-09T23:21:34.332Z,4.72
2022-11-09T23:24:04.197Z,3.60
2022-11-09T23:26:32.711Z,4.57
2022-11-09T23:29:00.171Z,4.20
2022-11-09T23:31:27.164Z,4.32
2022-11-09T23:33:56.272Z,4.53
2022-11-09T23:36:24.770Z,4.35
2022-11-09T23:38:52.075Z,4.45
2022-11-09T23:41:19.466Z,3.90
2022-11-09T23:43:49.305Z,4.78
2022-11-09T23:46:17.163Z,4.93
2022-11-09T23:48:44.427Z,4.90
2022-11-09T23:51:11.146Z,4.32
2022-11-09T23:53:38.304Z,4.55
2022-11-09T23:56:07.797Z,4.45
2022-11-09T23:58:34.973Z,4.50
